sensor_id;sensor_type;location;lat;lon;timestamp;temperature;humidity
21778;DHT22;11050;52.222;20.916;2023-05-16T00:00:17;11.30;99.90
21778;DHT22;11050;52.222;20.916;2023-05-16T00:02:44;11.30;99.90
21778;DHT22;11050;52.222;20.916;2023-05-16T00:05:10;11.30;99.90
21778;DHT22;11050;52.222;20.916;2023-05-16T00:07:41;11.30;99.90
21778;DHT22;11050;52.222;20.916;2023-05-16T00:10:08;11.30;99.90
21778;DHT22;11050;52.222;20.916;2023-05-16T00:12:34;11.40;99.90
21778;DHT22;11050;52.222;20.916;2023-05-16T00:15:02;11.40;99.90
21778;DHT22;11050;52.222;20.916;2023-05-16T00:17:29;11.40;99.90
21778;DHT22;11050;52.222;20.916;2023-05-16T00:19:55;11.40;99.90
21778;DHT22;11050;52.222;20.916;2023-05-16T00:22:25;11.40;99.90
21778;DHT22;11050;52.222;20.916;2023-05-16T00:24:51;11.40;99.90
21778;DHT22;11050;52.222;20.916;2023-05-16T00:27:17;11.40;99.90
21778;DHT22;11050;52.222;20.916;2023-05-16T00:29:43;11.50;99.90
21778;DHT22;11050;52.222;20.916;2023-05-16T00:32:09;11.40;99.90
21778;DHT22;11050;52.222;20.916;2023-05-16T00:34:35;11.40;99.90
21778;DHT22;11050;52.222;20.916;2023-05-16T00:37:00;11.40;99.90
21778;DHT22;11050;52.222;20.916;2023-05-16T00:39:26;11.40;99.90
21778;DHT22;11050;52.222;20.916;2023-05-16T00:41:52;11.40;99.90
21778;DHT22;11050;52.222;20.916;2023-05-16T00:44:18;11.30;99.90
21778;DHT22;11050;52.222;20.916;2023-05-16T00:46:43;11.30;99.90
21778;DHT22;11050;52.222;20.916;2023-05-16T00:49:09;11.30;99.90
21778;DHT22;11050;52.222;20.916;2023-05-16T00:51:37;11.30;99.90
21778;DHT22;11050;52.222;20.916;2023-05-16T00:54:04;11.30;99.90
21778;DHT22;11050;52.222;20.916;2023-05-16T00:56:32;11.40;99.90
21778;DHT22;11050;52.222;20.916;2023-05-16T00:58:58;11.40;99.90
21778;DHT22;11050;52.222;20.916;2023-05-16T01:01:27;11.40;99.90
21778;DHT22;11050;52.222;20.916;2023-05-16T01:03:54;11.40;99.90
21778;DHT22;11050;52.222;20.916;2023-05-16T01:06:19;11.40;99.90
21778;DHT22;11050;52.222;20.916;2023-05-16T01:08:45;11.40;99.90
21778;DHT22;11050;52.222;20.916;2023-05-16T01:11:24;11.40;99.90
21778;DHT22;11050;52.222;20.916;2023-05-16T01:17:32;11.50;99.90
21778;DHT22;11050;52.222;20.916;2023-05-16T01:26:20;11.40;99.90
21778;DHT22;11050;52.222;20.916;2023-05-16T01:28:49;11.40;99.90
21778;DHT22;11050;52.222;20.916;2023-05-16T01:31:16;11.40;99.90
21778;DHT22;11050;52.222;20.916;2023-05-16T01:33:42;11.40;99.90
21778;DHT22;11050;52.222;20.916;2023-05-16T01:36:23;11.40;99.90
21778;DHT22;11050;52.222;20.916;2023-05-16T01:42:03;11.40;99.90
21778;DHT22;11050;52.222;20.916;2023-05-16T01:44:58;11.50;99.90
21778;DHT22;11050;52.222;20.916;2023-05-16T01:47:35;11.50;99.90
21778;DHT22;11050;52.222;20.916;2023-05-16T01:50:11;11.50;99.90
21778;DHT22;11050;52.222;20.916;2023-05-16T01:52:41;11.60;99.90
21778;DHT22;11050;52.222;20.916;2023-05-16T01:55:42;11.60;99.90
21778;DHT22;11050;52.222;20.916;2023-05-16T01:58:24;11.60;99.90
21778;DHT22;11050;52.222;20.916;2023-05-16T02:00:53;11.60;99.90
21778;DHT22;11050;52.222;20.916;2023-05-16T02:03:19;11.60;99.90
21778;DHT22;11050;52.222;20.916;2023-05-16T02:05:44;11.50;99.90
21778;DHT22;11050;52.222;20.916;2023-05-16T02:08:10;11.50;99.90
21778;DHT22;11050;52.222;20.916;2023-05-16T02:10:37;11.60;99.90
21778;DHT22;11050;52.222;20.916;2023-05-16T02:13:05;11.50;99.90
21778;DHT22;11050;52.222;20.916;2023-05-16T02:15:31;11.60;99.90
21778;DHT22;11050;52.222;20.916;2023-05-16T02:17:56;11.50;99.90
21778;DHT22;11050;52.222;20.916;2023-05-16T02:20:23;11.50;99.90
21778;DHT22;11050;52.222;20.916;2023-05-16T02:22:48;11.60;99.90
21778;DHT22;11050;52.222;20.916;2023-05-16T02:25:14;11.50;99.90
21778;DHT22;11050;52.222;20.916;2023-05-16T02:27:40;11.50;99.90
21778;DHT22;11050;52.222;20.916;2023-05-16T02:30:09;11.50;99.90
21778;DHT22;11050;52.222;20.916;2023-05-16T02:32:39;11.50;99.90
21778;DHT22;11050;52.222;20.916;2023-05-16T02:35:05;11.50;99.90
21778;DHT22;11050;52.222;20.916;2023-05-16T02:37:32;11.50;99.90
21778;DHT22;11050;52.222;20.916;2023-05-16T02:39:58;11.50;99.90
21778;DHT22;11050;52.222;20.916;2023-05-16T02:42:25;11.50;99.90
21778;DHT22;11050;52.222;20.916;2023-05-16T02:44:51;11.50;99.90
21778;DHT22;11050;52.222;20.916;2023-05-16T02:47:17;11.50;99.90
21778;DHT22;11050;52.222;20.916;2023-05-16T02:49:43;11.40;99.90
21778;DHT22;11050;52.222;20.916;2023-05-16T02:52:08;11.30;99.90
21778;DHT22;11050;52.222;20.916;2023-05-16T02:54:34;11.30;99.90
21778;DHT22;11050;52.222;20.916;2023-05-16T02:57:00;11.20;99.90
21778;DHT22;11050;52.222;20.916;2023-05-16T02:59:26;11.20;99.90
21778;DHT22;11050;52.222;20.916;2023-05-16T03:01:52;11.10;99.90
21778;DHT22;11050;52.222;20.916;2023-05-16T03:04:17;11.00;99.90
21778;DHT22;11050;52.222;20.916;2023-05-16T03:06:43;11.00;99.90
21778;DHT22;11050;52.222;20.916;2023-05-16T03:09:09;10.90;99.90
21778;DHT22;11050;52.222;20.916;2023-05-16T03:11:35;10.90;99.90
21778;DHT22;11050;52.222;20.916;2023-05-16T03:14:02;10.80;99.90
21778;DHT22;11050;52.222;20.916;2023-05-16T03:16:27;10.80;99.90
21778;DHT22;11050;52.222;20.916;2023-05-16T03:18:53;10.80;99.90
21778;DHT22;11050;52.222;20.916;2023-05-16T03:21:18;10.70;99.90
21778;DHT22;11050;52.222;20.916;2023-05-16T03:23:44;10.70;99.90
21778;DHT22;11050;52.222;20.916;2023-05-16T03:26:10;10.70;99.90
21778;DHT22;11050;52.222;20.916;2023-05-16T03:28:36;10.80;99.90
21778;DHT22;11050;52.222;20.916;2023-05-16T03:31:02;10.80;99.90
21778;DHT22;11050;52.222;20.916;2023-05-16T03:33:27;10.80;99.90
21778;DHT22;11050;52.222;20.916;2023-05-16T03:36:01;10.80;99.90
21778;DHT22;11050;52.222;20.916;2023-05-16T03:38:26;10.80;99.90
21778;DHT22;11050;52.222;20.916;2023-05-16T03:40:52;10.70;99.90
21778;DHT22;11050;52.222;20.916;2023-05-16T03:43:18;10.80;99.90
21778;DHT22;11050;52.222;20.916;2023-05-16T03:45:43;10.70;99.90
21778;DHT22;11050;52.222;20.916;2023-05-16T03:48:09;10.80;99.90
21778;DHT22;11050;52.222;20.916;2023-05-16T03:50:35;10.80;99.90
21778;DHT22;11050;52.222;20.916;2023-05-16T03:53:01;10.70;99.90
21778;DHT22;11050;52.222;20.916;2023-05-16T03:55:28;10.80;99.90
21778;DHT22;11050;52.222;20.916;2023-05-16T03:57:55;10.70;99.90
21778;DHT22;11050;52.222;20.916;2023-05-16T04:00:21;10.80;99.90
21778;DHT22;11050;52.222;20.916;2023-05-16T04:02:47;10.80;99.90
21778;DHT22;11050;52.222;20.916;2023-05-16T04:05:12;10.80;99.90
21778;DHT22;11050;52.222;20.916;2023-05-16T04:07:39;10.80;99.90
21778;DHT22;11050;52.222;20.916;2023-05-16T04:10:06;10.90;99.90
21778;DHT22;11050;52.222;20.916;2023-05-16T04:12:32;10.90;99.90
21778;DHT22;11050;52.222;20.916;2023-05-16T04:14:58;10.90;99.90
21778;DHT22;11050;52.222;20.916;2023-05-16T04:17:23;10.90;99.90
21778;DHT22;11050;52.222;20.916;2023-05-16T04:19:49;11.00;99.90
21778;DHT22;11050;52.222;20.916;2023-05-16T04:22:15;11.00;99.90
21778;DHT22;11050;52.222;20.916;2023-05-16T04:24:41;11.00;99.90
21778;DHT22;11050;52.222;20.916;2023-05-16T04:27:07;11.10;99.90
21778;DHT22;11050;52.222;20.916;2023-05-16T04:29:36;11.10;99.90
21778;DHT22;11050;52.222;20.916;2023-05-16T04:32:02;11.20;99.90
21778;DHT22;11050;52.222;20.916;2023-05-16T04:34:28;11.20;99.90
21778;DHT22;11050;52.222;20.916;2023-05-16T04:36:53;11.20;99.90
21778;DHT22;11050;52.222;20.916;2023-05-16T04:39:19;11.30;99.90
21778;DHT22;11050;52.222;20.916;2023-05-16T04:41:45;11.40;99.90
21778;DHT22;11050;52.222;20.916;2023-05-16T04:44:11;11.40;99.90
21778;DHT22;11050;52.222;20.916;2023-05-16T04:46:36;11.40;99.90
21778;DHT22;11050;52.222;20.916;2023-05-16T04:49:02;11.50;99.90
21778;DHT22;11050;52.222;20.916;2023-05-16T04:51:28;11.60;99.90
21778;DHT22;11050;52.222;20.916;2023-05-16T04:53:53;11.70;99.90
21778;DHT22;11050;52.222;20.916;2023-05-16T04:56:19;11.80;99.90
21778;DHT22;11050;52.222;20.916;2023-05-16T04:58:45;11.90;99.90
21778;DHT22;11050;52.222;20.916;2023-05-16T05:01:11;12.00;99.90
21778;DHT22;11050;52.222;20.916;2023-05-16T05:03:37;12.10;99.90
21778;DHT22;11050;52.222;20.916;2023-05-16T05:06:03;12.20;99.90
21778;DHT22;11050;52.222;20.916;2023-05-16T05:08:29;12.30;99.90
21778;DHT22;11050;52.222;20.916;2023-05-16T05:10:55;12.40;99.90
21778;DHT22;11050;52.222;20.916;2023-05-16T05:13:21;12.40;99.90
21778;DHT22;11050;52.222;20.916;2023-05-16T05:15:47;12.50;99.90
21778;DHT22;11050;52.222;20.916;2023-05-16T05:18:14;12.60;99.90
21778;DHT22;11050;52.222;20.916;2023-05-16T05:20:40;12.70;99.90
21778;DHT22;11050;52.222;20.916;2023-05-16T05:23:06;12.70;99.90
21778;DHT22;11050;52.222;20.916;2023-05-16T05:25:32;12.80;99.90
21778;DHT22;11050;52.222;20.916;2023-05-16T05:28:00;12.80;99.90
21778;DHT22;11050;52.222;20.916;2023-05-16T05:30:26;12.90;99.90
21778;DHT22;11050;52.222;20.916;2023-05-16T05:32:52;13.00;99.90
21778;DHT22;11050;52.222;20.916;2023-05-16T05:35:19;13.00;99.90
21778;DHT22;11050;52.222;20.916;2023-05-16T05:37:45;13.10;99.90
21778;DHT22;11050;52.222;20.916;2023-05-16T05:40:11;13.10;99.90
21778;DHT22;11050;52.222;20.916;2023-05-16T05:42:37;13.20;99.90
21778;DHT22;11050;52.222;20.916;2023-05-16T05:45:03;13.40;99.90
21778;DHT22;11050;52.222;20.916;2023-05-16T05:47:29;13.40;99.90
21778;DHT22;11050;52.222;20.916;2023-05-16T05:49:55;13.50;99.90
21778;DHT22;11050;52.222;20.916;2023-05-16T05:52:21;13.60;99.90
21778;DHT22;11050;52.222;20.916;2023-05-16T05:54:47;13.60;99.90
21778;DHT22;11050;52.222;20.916;2023-05-16T05:57:13;13.60;99.90
21778;DHT22;11050;52.222;20.916;2023-05-16T05:59:38;13.60;99.90
21778;DHT22;11050;52.222;20.916;2023-05-16T06:02:04;13.60;99.90
21778;DHT22;11050;52.222;20.916;2023-05-16T06:04:30;13.70;99.90
21778;DHT22;11050;52.222;20.916;2023-05-16T06:06:56;13.70;99.90
21778;DHT22;11050;52.222;20.916;2023-05-16T06:09:21;13.60;99.90
21778;DHT22;11050;52.222;20.916;2023-05-16T06:11:48;13.60;99.90
21778;DHT22;11050;52.222;20.916;2023-05-16T06:14:14;13.60;99.90
21778;DHT22;11050;52.222;20.916;2023-05-16T06:16:40;13.60;99.90
21778;DHT22;11050;52.222;20.916;2023-05-16T06:19:06;13.60;99.90
21778;DHT22;11050;52.222;20.916;2023-05-16T06:21:32;13.60;99.90
21778;DHT22;11050;52.222;20.916;2023-05-16T06:23:58;13.60;99.90
21778;DHT22;11050;52.222;20.916;2023-05-16T06:26:24;13.60;99.90
21778;DHT22;11050;52.222;20.916;2023-05-16T06:28:50;13.60;99.90
21778;DHT22;11050;52.222;20.916;2023-05-16T06:31:16;13.60;99.90
21778;DHT22;11050;52.222;20.916;2023-05-16T06:33:41;13.60;99.90
21778;DHT22;11050;52.222;20.916;2023-05-16T06:36:07;13.60;99.90
21778;DHT22;11050;52.222;20.916;2023-05-16T06:38:33;13.60;99.90
21778;DHT22;11050;52.222;20.916;2023-05-16T06:40:58;13.60;99.90
21778;DHT22;11050;52.222;20.916;2023-05-16T06:43:24;13.60;99.90
21778;DHT22;11050;52.222;20.916;2023-05-16T06:45:50;13.50;99.90
21778;DHT22;11050;52.222;20.916;2023-05-16T06:48:17;13.50;99.90
21778;DHT22;11050;52.222;20.916;2023-05-16T06:50:46;13.60;99.90
21778;DHT22;11050;52.222;20.916;2023-05-16T06:53:16;13.60;99.90
21778;DHT22;11050;52.222;20.916;2023-05-16T06:55:43;13.70;99.90
21778;DHT22;11050;52.222;20.916;2023-05-16T06:58:09;13.70;99.90
21778;DHT22;11050;52.222;20.916;2023-05-16T07:00:35;13.80;99.90
21778;DHT22;11050;52.222;20.916;2023-05-16T07:03:01;13.80;99.90
21778;DHT22;11050;52.222;20.916;2023-05-16T07:05:28;13.80;99.90
21778;DHT22;11050;52.222;20.916;2023-05-16T07:07:54;13.80;99.90
21778;DHT22;11050;52.222;20.916;2023-05-16T07:10:20;13.90;99.90
21778;DHT22;11050;52.222;20.916;2023-05-16T07:12:46;13.90;99.90
21778;DHT22;11050;52.222;20.916;2023-05-16T07:15:13;13.90;99.90
21778;DHT22;11050;52.222;20.916;2023-05-16T07:17:39;13.90;99.90
21778;DHT22;11050;52.222;20.916;2023-05-16T07:20:06;13.90;99.90
21778;DHT22;11050;52.222;20.916;2023-05-16T07:22:35;13.90;99.90
21778;DHT22;11050;52.222;20.916;2023-05-16T07:25:01;14.00;99.90
21778;DHT22;11050;52.222;20.916;2023-05-16T07:27:27;14.00;99.90
21778;DHT22;11050;52.222;20.916;2023-05-16T07:29:53;14.10;99.90
21778;DHT22;11050;52.222;20.916;2023-05-16T07:32:18;14.10;99.90
21778;DHT22;11050;52.222;20.916;2023-05-16T07:34:44;14.10;99.90
21778;DHT22;11050;52.222;20.916;2023-05-16T07:37:10;14.20;99.90
21778;DHT22;11050;52.222;20.916;2023-05-16T07:39:40;14.40;99.90
21778;DHT22;11050;52.222;20.916;2023-05-16T07:42:07;14.40;99.90
21778;DHT22;11050;52.222;20.916;2023-05-16T07:44:33;14.50;99.90
21778;DHT22;11050;52.222;20.916;2023-05-16T07:47:00;14.70;99.90
21778;DHT22;11050;52.222;20.916;2023-05-16T07:49:26;14.90;99.90
21778;DHT22;11050;52.222;20.916;2023-05-16T07:51:52;15.10;99.90
21778;DHT22;11050;52.222;20.916;2023-05-16T07:54:17;15.20;99.90
21778;DHT22;11050;52.222;20.916;2023-05-16T07:56:43;15.30;99.90
21778;DHT22;11050;52.222;20.916;2023-05-16T07:59:09;15.30;99.90
21778;DHT22;11050;52.222;20.916;2023-05-16T08:01:35;15.30;99.90
21778;DHT22;11050;52.222;20.916;2023-05-16T08:04:01;15.30;99.90
21778;DHT22;11050;52.222;20.916;2023-05-16T08:06:26;15.30;99.90
21778;DHT22;11050;52.222;20.916;2023-05-16T08:08:54;15.20;99.90
21778;DHT22;11050;52.222;20.916;2023-05-16T08:11:19;15.20;99.90
21778;DHT22;11050;52.222;20.916;2023-05-16T08:13:48;15.10;99.90
21778;DHT22;11050;52.222;20.916;2023-05-16T08:16:14;15.10;99.90
21778;DHT22;11050;52.222;20.916;2023-05-16T08:18:40;15.10;99.90
21778;DHT22;11050;52.222;20.916;2023-05-16T08:21:06;15.10;99.90
21778;DHT22;11050;52.222;20.916;2023-05-16T08:23:33;15.20;99.90
21778;DHT22;11050;52.222;20.916;2023-05-16T08:25:59;15.20;99.90
21778;DHT22;11050;52.222;20.916;2023-05-16T08:28:26;15.20;99.90
21778;DHT22;11050;52.222;20.916;2023-05-16T08:30:51;15.30;99.90
21778;DHT22;11050;52.222;20.916;2023-05-16T08:33:17;15.40;99.90
21778;DHT22;11050;52.222;20.916;2023-05-16T08:35:43;15.50;99.90
21778;DHT22;11050;52.222;20.916;2023-05-16T08:38:09;15.60;99.90
21778;DHT22;11050;52.222;20.916;2023-05-16T08:40:35;15.80;99.90
21778;DHT22;11050;52.222;20.916;2023-05-16T08:43:01;15.80;99.90
21778;DHT22;11050;52.222;20.916;2023-05-16T08:45:27;16.00;99.90
21778;DHT22;11050;52.222;20.916;2023-05-16T08:47:55;16.10;99.90
21778;DHT22;11050;52.222;20.916;2023-05-16T08:50:23;16.20;99.90
21778;DHT22;11050;52.222;20.916;2023-05-16T08:52:51;16.30;99.90
21778;DHT22;11050;52.222;20.916;2023-05-16T08:55:19;16.30;99.90
21778;DHT22;11050;52.222;20.916;2023-05-16T08:57:48;16.40;99.90
21778;DHT22;11050;52.222;20.916;2023-05-16T09:00:17;16.40;99.90
21778;DHT22;11050;52.222;20.916;2023-05-16T09:02:44;16.50;99.90
21778;DHT22;11050;52.222;20.916;2023-05-16T09:05:12;16.50;99.90
21778;DHT22;11050;52.222;20.916;2023-05-16T09:07:40;16.60;99.90
21778;DHT22;11050;52.222;20.916;2023-05-16T09:10:07;16.60;99.90
21778;DHT22;11050;52.222;20.916;2023-05-16T09:12:34;16.70;99.90
21778;DHT22;11050;52.222;20.916;2023-05-16T09:15:04;16.70;99.90
21778;DHT22;11050;52.222;20.916;2023-05-16T09:17:39;16.80;99.90
21778;DHT22;11050;52.222;20.916;2023-05-16T09:20:14;16.80;99.90
21778;DHT22;11050;52.222;20.916;2023-05-16T09:22:52;16.90;99.90
21778;DHT22;11050;52.222;20.916;2023-05-16T09:25:21;16.90;99.90
21778;DHT22;11050;52.222;20.916;2023-05-16T09:27:52;17.10;99.90
21778;DHT22;11050;52.222;20.916;2023-05-16T09:30:23;17.20;99.90
21778;DHT22;11050;52.222;20.916;2023-05-16T09:32:53;17.20;99.90
21778;DHT22;11050;52.222;20.916;2023-05-16T09:35:20;17.30;99.20
21778;DHT22;11050;52.222;20.916;2023-05-16T09:37:48;17.30;98.60
21778;DHT22;11050;52.222;20.916;2023-05-16T09:40:22;17.30;98.70
21778;DHT22;11050;52.222;20.916;2023-05-16T09:43:04;17.40;99.50
21778;DHT22;11050;52.222;20.916;2023-05-16T09:45:33;17.40;98.90
21778;DHT22;11050;52.222;20.916;2023-05-16T09:48:05;17.60;98.60
21778;DHT22;11050;52.222;20.916;2023-05-16T09:50:33;17.60;97.60
21778;DHT22;11050;52.222;20.916;2023-05-16T09:53:01;17.50;97.90
21778;DHT22;11050;52.222;20.916;2023-05-16T09:55:27;17.40;97.80
21778;DHT22;11050;52.222;20.916;2023-05-16T09:57:54;17.40;97.70
21778;DHT22;11050;52.222;20.916;2023-05-16T10:00:20;17.40;97.80
21778;DHT22;11050;52.222;20.916;2023-05-16T10:02:46;17.40;97.70
21778;DHT22;11050;52.222;20.916;2023-05-16T10:05:13;17.40;97.50
21778;DHT22;11050;52.222;20.916;2023-05-16T10:07:41;17.30;98.00
21778;DHT22;11050;52.222;20.916;2023-05-16T10:10:10;17.30;98.30
21778;DHT22;11050;52.222;20.916;2023-05-16T10:12:37;17.10;98.70
21778;DHT22;11050;52.222;20.916;2023-05-16T10:15:04;17.00;98.30
21778;DHT22;11050;52.222;20.916;2023-05-16T10:17:33;17.00;98.80
21778;DHT22;11050;52.222;20.916;2023-05-16T10:20:04;16.80;98.90
21778;DHT22;11050;52.222;20.916;2023-05-16T10:22:35;16.80;99.10
21778;DHT22;11050;52.222;20.916;2023-05-16T10:27:55;16.80;99.90
21778;DHT22;11050;52.222;20.916;2023-05-16T10:30:21;16.80;99.90
21778;DHT22;11050;52.222;20.916;2023-05-16T10:32:49;16.80;99.90
21778;DHT22;11050;52.222;20.916;2023-05-16T10:35:16;16.80;99.90
21778;DHT22;11050;52.222;20.916;2023-05-16T10:37:42;16.80;99.90
21778;DHT22;11050;52.222;20.916;2023-05-16T10:40:09;16.80;99.70
21778;DHT22;11050;52.222;20.916;2023-05-16T10:42:35;16.80;99.10
21778;DHT22;11050;52.222;20.916;2023-05-16T10:45:19;16.80;99.00
21778;DHT22;11050;52.222;20.916;2023-05-16T10:47:52;16.90;99.30
21778;DHT22;11050;52.222;20.916;2023-05-16T10:50:42;17.00;98.40
21778;DHT22;11050;52.222;20.916;2023-05-16T10:56:09;17.40;98.00
21778;DHT22;11050;52.222;20.916;2023-05-16T11:09:24;17.90;95.40
21778;DHT22;11050;52.222;20.916;2023-05-16T11:19:43;18.30;94.00
21778;DHT22;11050;52.222;20.916;2023-05-16T11:25:04;18.20;93.60
21778;DHT22;11050;52.222;20.916;2023-05-16T11:27:32;18.10;93.90
21778;DHT22;11050;52.222;20.916;2023-05-16T11:32:30;18.20;94.40
21778;DHT22;11050;52.222;20.916;2023-05-16T11:34:58;18.30;93.70
21778;DHT22;11050;52.222;20.916;2023-05-16T11:37:24;18.50;93.30
21778;DHT22;11050;52.222;20.916;2023-05-16T11:39:50;18.60;92.90
21778;DHT22;11050;52.222;20.916;2023-05-16T11:42:16;18.70;92.20
21778;DHT22;11050;52.222;20.916;2023-05-16T11:44:43;18.70;92.00
21778;DHT22;11050;52.222;20.916;2023-05-16T11:47:09;18.80;92.10
21778;DHT22;11050;52.222;20.916;2023-05-16T11:49:35;18.80;92.10
21778;DHT22;11050;52.222;20.916;2023-05-16T11:52:02;19.00;91.80
21778;DHT22;11050;52.222;20.916;2023-05-16T11:54:28;19.10;91.60
21778;DHT22;11050;52.222;20.916;2023-05-16T11:56:55;19.40;90.70
21778;DHT22;11050;52.222;20.916;2023-05-16T11:59:21;19.60;90.40
21778;DHT22;11050;52.222;20.916;2023-05-16T12:01:47;19.90;89.20
21778;DHT22;11050;52.222;20.916;2023-05-16T12:04:14;20.10;87.50
21778;DHT22;11050;52.222;20.916;2023-05-16T12:06:42;20.20;88.00
21778;DHT22;11050;52.222;20.916;2023-05-16T12:09:13;20.40;85.70
21778;DHT22;11050;52.222;20.916;2023-05-16T12:11:42;20.50;84.20
21778;DHT22;11050;52.222;20.916;2023-05-16T12:14:10;20.80;82.90
21778;DHT22;11050;52.222;20.916;2023-05-16T12:16:38;21.10;81.00
21778;DHT22;11050;52.222;20.916;2023-05-16T12:19:07;21.40;80.20
21778;DHT22;11050;52.222;20.916;2023-05-16T12:21:34;21.50;77.50
21778;DHT22;11050;52.222;20.916;2023-05-16T12:24:00;21.60;76.20
21778;DHT22;11050;52.222;20.916;2023-05-16T12:26:28;21.50;74.90
21778;DHT22;11050;52.222;20.916;2023-05-16T12:29:02;21.30;74.90
21778;DHT22;11050;52.222;20.916;2023-05-16T12:31:31;21.00;75.80
21778;DHT22;11050;52.222;20.916;2023-05-16T12:34:01;20.80;76.30
21778;DHT22;11050;52.222;20.916;2023-05-16T12:36:31;20.60;76.00
21778;DHT22;11050;52.222;20.916;2023-05-16T12:39:00;20.40;76.80
21778;DHT22;11050;52.222;20.916;2023-05-16T12:41:29;20.20;77.10
21778;DHT22;11050;52.222;20.916;2023-05-16T12:44:06;20.10;78.10
21778;DHT22;11050;52.222;20.916;2023-05-16T12:46:44;20.10;79.90
21778;DHT22;11050;52.222;20.916;2023-05-16T12:49:13;20.10;79.60
21778;DHT22;11050;52.222;20.916;2023-05-16T12:51:39;20.00;80.80
21778;DHT22;11050;52.222;20.916;2023-05-16T12:54:10;20.10;81.40
21778;DHT22;11050;52.222;20.916;2023-05-16T12:56:37;20.20;81.10
21778;DHT22;11050;52.222;20.916;2023-05-16T12:59:04;20.40;80.50
21778;DHT22;11050;52.222;20.916;2023-05-16T13:01:30;20.60;79.20
21778;DHT22;11050;52.222;20.916;2023-05-16T13:03:55;20.70;78.50
21778;DHT22;11050;52.222;20.916;2023-05-16T13:06:21;20.80;79.10
21778;DHT22;11050;52.222;20.916;2023-05-16T13:08:47;20.90;77.80
21778;DHT22;11050;52.222;20.916;2023-05-16T13:11:12;20.90;77.90
21778;DHT22;11050;52.222;20.916;2023-05-16T13:13:38;20.90;77.60
21778;DHT22;11050;52.222;20.916;2023-05-16T13:16:04;20.90;77.60
21778;DHT22;11050;52.222;20.916;2023-05-16T13:18:30;20.90;77.40
21778;DHT22;11050;52.222;20.916;2023-05-16T13:20:55;21.00;76.90
21778;DHT22;11050;52.222;20.916;2023-05-16T13:23:21;21.20;77.30
21778;DHT22;11050;52.222;20.916;2023-05-16T13:25:47;21.60;76.40
21778;DHT22;11050;52.222;20.916;2023-05-16T13:28:13;21.90;74.40
21778;DHT22;11050;52.222;20.916;2023-05-16T13:30:38;22.30;72.60
21778;DHT22;11050;52.222;20.916;2023-05-16T13:33:04;22.60;71.90
21778;DHT22;11050;52.222;20.916;2023-05-16T13:35:30;22.90;71.40
21778;DHT22;11050;52.222;20.916;2023-05-16T13:37:55;23.20;69.10
21778;DHT22;11050;52.222;20.916;2023-05-16T13:40:21;23.30;67.70
21778;DHT22;11050;52.222;20.916;2023-05-16T13:42:47;23.40;65.90
21778;DHT22;11050;52.222;20.916;2023-05-16T13:45:13;23.40;65.40
21778;DHT22;11050;52.222;20.916;2023-05-16T13:47:39;23.60;63.20
21778;DHT22;11050;52.222;20.916;2023-05-16T13:50:06;23.70;61.50
21778;DHT22;11050;52.222;20.916;2023-05-16T13:52:35;23.90;61.70
21778;DHT22;11050;52.222;20.916;2023-05-16T13:55:01;24.10;60.90
21778;DHT22;11050;52.222;20.916;2023-05-16T13:57:28;24.20;59.60
21778;DHT22;11050;52.222;20.916;2023-05-16T13:59:53;24.30;58.70
21778;DHT22;11050;52.222;20.916;2023-05-16T14:02:19;24.40;57.20
21778;DHT22;11050;52.222;20.916;2023-05-16T14:04:45;24.50;56.70
21778;DHT22;11050;52.222;20.916;2023-05-16T14:07:11;24.50;56.70
21778;DHT22;11050;52.222;20.916;2023-05-16T14:09:36;24.50;56.60
21778;DHT22;11050;52.222;20.916;2023-05-16T14:12:07;24.50;55.20
21778;DHT22;11050;52.222;20.916;2023-05-16T14:14:34;24.40;55.30
21778;DHT22;11050;52.222;20.916;2023-05-16T14:17:05;24.20;56.20
21778;DHT22;11050;52.222;20.916;2023-05-16T14:19:31;24.00;56.80
21778;DHT22;11050;52.222;20.916;2023-05-16T14:21:58;23.90;56.90
21778;DHT22;11050;52.222;20.916;2023-05-16T14:24:24;23.70;57.10
21778;DHT22;11050;52.222;20.916;2023-05-16T14:26:49;23.60;58.10
21778;DHT22;11050;52.222;20.916;2023-05-16T14:29:19;23.50;58.00
21778;DHT22;11050;52.222;20.916;2023-05-16T14:31:45;23.40;58.00
21778;DHT22;11050;52.222;20.916;2023-05-16T14:34:11;23.30;58.80
21778;DHT22;11050;52.222;20.916;2023-05-16T14:36:37;23.20;58.10
21778;DHT22;11050;52.222;20.916;2023-05-16T14:39:02;23.10;59.00
21778;DHT22;11050;52.222;20.916;2023-05-16T14:41:28;23.00;59.40
21778;DHT22;11050;52.222;20.916;2023-05-16T14:43:54;22.90;59.50
21778;DHT22;11050;52.222;20.916;2023-05-16T14:46:20;22.80;58.70
21778;DHT22;11050;52.222;20.916;2023-05-16T14:48:46;22.80;59.50
21778;DHT22;11050;52.222;20.916;2023-05-16T14:51:11;22.80;59.50
21778;DHT22;11050;52.222;20.916;2023-05-16T14:53:37;22.90;58.90
21778;DHT22;11050;52.222;20.916;2023-05-16T14:56:03;22.90;58.80
21778;DHT22;11050;52.222;20.916;2023-05-16T14:58:29;22.90;59.00
21778;DHT22;11050;52.222;20.916;2023-05-16T15:00:55;22.90;58.90
21778;DHT22;11050;52.222;20.916;2023-05-16T15:03:21;22.90;58.60
21778;DHT22;11050;52.222;20.916;2023-05-16T15:05:47;22.80;59.30
21778;DHT22;11050;52.222;20.916;2023-05-16T15:08:12;22.70;58.80
21778;DHT22;11050;52.222;20.916;2023-05-16T15:10:38;22.50;59.10
21778;DHT22;11050;52.222;20.916;2023-05-16T15:13:04;22.40;60.00
21778;DHT22;11050;52.222;20.916;2023-05-16T15:15:30;22.30;60.20
21778;DHT22;11050;52.222;20.916;2023-05-16T15:17:57;22.30;60.00
21778;DHT22;11050;52.222;20.916;2023-05-16T15:20:22;22.20;60.00
21778;DHT22;11050;52.222;20.916;2023-05-16T15:22:50;22.20;60.50
21778;DHT22;11050;52.222;20.916;2023-05-16T15:25:15;22.10;60.80
21778;DHT22;11050;52.222;20.916;2023-05-16T15:27:41;22.10;60.80
21778;DHT22;11050;52.222;20.916;2023-05-16T15:30:08;22.00;61.20
21778;DHT22;11050;52.222;20.916;2023-05-16T15:32:35;21.90;61.80
21778;DHT22;11050;52.222;20.916;2023-05-16T15:35:00;21.90;61.70
21778;DHT22;11050;52.222;20.916;2023-05-16T15:37:26;21.80;61.60
21778;DHT22;11050;52.222;20.916;2023-05-16T15:39:52;21.80;62.70
21778;DHT22;11050;52.222;20.916;2023-05-16T15:42:17;21.80;63.60
21778;DHT22;11050;52.222;20.916;2023-05-16T15:44:44;21.80;64.50
21778;DHT22;11050;52.222;20.916;2023-05-16T15:47:10;21.80;64.20
21778;DHT22;11050;52.222;20.916;2023-05-16T15:49:36;21.70;63.20
21778;DHT22;11050;52.222;20.916;2023-05-16T15:52:02;21.80;64.20
21778;DHT22;11050;52.222;20.916;2023-05-16T15:54:28;21.80;64.80
21778;DHT22;11050;52.222;20.916;2023-05-16T15:56:54;21.80;64.00